Terminal Aerodrome Forecast
Issued by NWS

Home | Current Version | Previous Version | Graphics & Text | Print | Product List | Glossary On
Versions: 1 2 3 4 5 6 7 8 9 10 11 12 13
000
FTUS43 KTOP 261400 AAA
TAFFOE
TAF AMD
KFOE 261423Z 2614/2712 22013KT P6SM BKN150
      TEMPO 2616/2619 -SHRA SCT070 BKN120
     FM270500 36009KT P6SM BKN150=

USA.gov is the U.S. government's official web portal to all federal, state and local government web resources and services.